sensor_id;sensor_type;location;lat;lon;timestamp;temperature;humidity
7234;DHT22;3658;47.992;10.158;2023-02-15T00:00:01;20.70;32.50
7234;DHT22;3658;47.992;10.158;2023-02-15T00:02:28;20.70;32.50
7234;DHT22;3658;47.992;10.158;2023-02-15T00:04:55;20.80;32.50
7234;DHT22;3658;47.992;10.158;2023-02-15T00:07:22;20.80;32.50
7234;DHT22;3658;47.992;10.158;2023-02-15T00:09:51;20.80;32.50
7234;DHT22;3658;47.992;10.158;2023-02-15T00:12:17;20.80;32.50
7234;DHT22;3658;47.992;10.158;2023-02-15T00:14:44;20.80;32.40
7234;DHT22;3658;47.992;10.158;2023-02-15T00:17:11;20.80;32.50
7234;DHT22;3658;47.992;10.158;2023-02-15T00:19:38;20.80;32.50
7234;DHT22;3658;47.992;10.158;2023-02-15T00:22:06;20.70;32.40
7234;DHT22;3658;47.992;10.158;2023-02-15T00:24:33;20.70;32.40
7234;DHT22;3658;47.992;10.158;2023-02-15T00:27:01;20.70;32.40
7234;DHT22;3658;47.992;10.158;2023-02-15T00:29:29;20.80;32.50
7234;DHT22;3658;47.992;10.158;2023-02-15T00:31:56;20.80;32.50
7234;DHT22;3658;47.992;10.158;2023-02-15T00:34:24;20.80;32.40
7234;DHT22;3658;47.992;10.158;2023-02-15T00:36:52;20.80;32.40
7234;DHT22;3658;47.992;10.158;2023-02-15T00:39:19;20.80;32.40
7234;DHT22;3658;47.992;10.158;2023-02-15T00:41:46;20.80;32.30
7234;DHT22;3658;47.992;10.158;2023-02-15T00:44:15;20.80;32.30
7234;DHT22;3658;47.992;10.158;2023-02-15T00:46:42;20.80;32.40
7234;DHT22;3658;47.992;10.158;2023-02-15T00:49:09;20.80;32.40
7234;DHT22;3658;47.992;10.158;2023-02-15T00:51:36;20.80;32.50
7234;DHT22;3658;47.992;10.158;2023-02-15T00:54:03;20.80;32.50
7234;DHT22;3658;47.992;10.158;2023-02-15T00:56:30;20.80;33.10
7234;DHT22;3658;47.992;10.158;2023-02-15T00:58:57;20.80;32.40
7234;DHT22;3658;47.992;10.158;2023-02-15T01:01:26;20.80;32.30
7234;DHT22;3658;47.992;10.158;2023-02-15T01:03:53;20.80;32.40
7234;DHT22;3658;47.992;10.158;2023-02-15T01:06:20;20.80;32.30
7234;DHT22;3658;47.992;10.158;2023-02-15T01:08:47;20.80;32.30
7234;DHT22;3658;47.992;10.158;2023-02-15T01:11:16;20.80;32.30
7234;DHT22;3658;47.992;10.158;2023-02-15T01:13:49;20.80;32.40
7234;DHT22;3658;47.992;10.158;2023-02-15T01:16:17;20.80;32.40
7234;DHT22;3658;47.992;10.158;2023-02-15T01:18:45;20.80;32.30
7234;DHT22;3658;47.992;10.158;2023-02-15T01:21:14;20.80;32.30
7234;DHT22;3658;47.992;10.158;2023-02-15T01:23:41;20.80;32.30
7234;DHT22;3658;47.992;10.158;2023-02-15T01:26:09;20.80;32.30
7234;DHT22;3658;47.992;10.158;2023-02-15T01:28:36;20.80;32.30
7234;DHT22;3658;47.992;10.158;2023-02-15T01:31:07;20.80;32.20
7234;DHT22;3658;47.992;10.158;2023-02-15T01:33:34;20.80;32.20
7234;DHT22;3658;47.992;10.158;2023-02-15T01:36:04;20.90;32.30
7234;DHT22;3658;47.992;10.158;2023-02-15T01:38:32;20.80;32.20
7234;DHT22;3658;47.992;10.158;2023-02-15T01:40:59;20.80;32.30
7234;DHT22;3658;47.992;10.158;2023-02-15T01:43:41;20.80;32.30
7234;DHT22;3658;47.992;10.158;2023-02-15T01:46:08;20.80;32.30
7234;DHT22;3658;47.992;10.158;2023-02-15T01:48:42;20.80;32.30
7234;DHT22;3658;47.992;10.158;2023-02-15T01:51:12;20.80;32.20
7234;DHT22;3658;47.992;10.158;2023-02-15T01:53:42;20.80;32.20
7234;DHT22;3658;47.992;10.158;2023-02-15T01:56:13;20.80;32.20
7234;DHT22;3658;47.992;10.158;2023-02-15T01:58:41;20.80;32.20
7234;DHT22;3658;47.992;10.158;2023-02-15T02:01:09;20.80;32.20
7234;DHT22;3658;47.992;10.158;2023-02-15T02:03:43;20.90;32.30
7234;DHT22;3658;47.992;10.158;2023-02-15T02:06:15;20.80;32.20
7234;DHT22;3658;47.992;10.158;2023-02-15T02:08:43;20.80;32.20
7234;DHT22;3658;47.992;10.158;2023-02-15T02:11:10;20.90;32.30
7234;DHT22;3658;47.992;10.158;2023-02-15T02:13:38;20.90;32.30
7234;DHT22;3658;47.992;10.158;2023-02-15T02:16:10;20.80;32.20
7234;DHT22;3658;47.992;10.158;2023-02-15T02:18:47;20.90;32.20
7234;DHT22;3658;47.992;10.158;2023-02-15T02:25:08;20.80;32.20
7234;DHT22;3658;47.992;10.158;2023-02-15T02:27:41;20.80;32.20
7234;DHT22;3658;47.992;10.158;2023-02-15T02:30:45;20.90;32.30
7234;DHT22;3658;47.992;10.158;2023-02-15T02:33:24;20.80;32.20
7234;DHT22;3658;47.992;10.158;2023-02-15T02:36:00;20.90;32.30
7234;DHT22;3658;47.992;10.158;2023-02-15T02:38:35;20.80;32.20
7234;DHT22;3658;47.992;10.158;2023-02-15T02:41:13;20.80;32.10
7234;DHT22;3658;47.992;10.158;2023-02-15T02:43:48;20.90;32.20
7234;DHT22;3658;47.992;10.158;2023-02-15T02:46:22;20.80;32.10
7234;DHT22;3658;47.992;10.158;2023-02-15T02:48:52;20.90;32.30
7234;DHT22;3658;47.992;10.158;2023-02-15T02:51:20;20.80;32.10
7234;DHT22;3658;47.992;10.158;2023-02-15T02:53:50;20.90;32.30
7234;DHT22;3658;47.992;10.158;2023-02-15T02:56:22;20.90;32.20
7234;DHT22;3658;47.992;10.158;2023-02-15T02:58:54;20.90;32.30
7234;DHT22;3658;47.992;10.158;2023-02-15T03:01:26;20.90;32.20
7234;DHT22;3658;47.992;10.158;2023-02-15T03:03:57;20.90;32.30
7234;DHT22;3658;47.992;10.158;2023-02-15T03:06:38;20.90;32.10
7234;DHT22;3658;47.992;10.158;2023-02-15T03:09:09;20.90;32.10
7234;DHT22;3658;47.992;10.158;2023-02-15T03:11:41;20.90;32.10
7234;DHT22;3658;47.992;10.158;2023-02-15T03:14:10;20.90;32.10
7234;DHT22;3658;47.992;10.158;2023-02-15T03:16:39;20.90;32.10
7234;DHT22;3658;47.992;10.158;2023-02-15T03:19:10;20.90;32.10
7234;DHT22;3658;47.992;10.158;2023-02-15T03:21:42;20.80;32.10
7234;DHT22;3658;47.992;10.158;2023-02-15T03:24:17;20.90;32.20
7234;DHT22;3658;47.992;10.158;2023-02-15T03:26:49;20.90;32.00
7234;DHT22;3658;47.992;10.158;2023-02-15T03:29:18;20.80;32.00
7234;DHT22;3658;47.992;10.158;2023-02-15T03:31:49;20.90;32.00
7234;DHT22;3658;47.992;10.158;2023-02-15T03:34:20;20.80;32.00
7234;DHT22;3658;47.992;10.158;2023-02-15T03:36:50;20.90;32.20
7234;DHT22;3658;47.992;10.158;2023-02-15T03:39:22;20.90;32.20
7234;DHT22;3658;47.992;10.158;2023-02-15T03:41:58;20.90;32.10
7234;DHT22;3658;47.992;10.158;2023-02-15T03:44:29;20.90;32.20
7234;DHT22;3658;47.992;10.158;2023-02-15T03:47:02;20.90;32.10
7234;DHT22;3658;47.992;10.158;2023-02-15T03:49:37;20.90;32.10
7234;DHT22;3658;47.992;10.158;2023-02-15T03:52:07;20.90;32.10
7234;DHT22;3658;47.992;10.158;2023-02-15T03:54:35;20.80;32.00
7234;DHT22;3658;47.992;10.158;2023-02-15T03:57:18;20.90;32.20
7234;DHT22;3658;47.992;10.158;2023-02-15T04:00:08;20.90;32.20
7234;DHT22;3658;47.992;10.158;2023-02-15T04:03:20;20.90;32.20
7234;DHT22;3658;47.992;10.158;2023-02-15T04:05:49;20.90;32.20
7234;DHT22;3658;47.992;10.158;2023-02-15T04:08:16;20.90;32.20
7234;DHT22;3658;47.992;10.158;2023-02-15T04:10:44;20.90;32.10
7234;DHT22;3658;47.992;10.158;2023-02-15T04:13:21;20.90;32.10
7234;DHT22;3658;47.992;10.158;2023-02-15T04:15:48;20.90;32.10
7234;DHT22;3658;47.992;10.158;2023-02-15T04:18:30;20.90;32.10
7234;DHT22;3658;47.992;10.158;2023-02-15T04:21:17;20.90;32.00
7234;DHT22;3658;47.992;10.158;2023-02-15T04:24:01;20.90;32.00
7234;DHT22;3658;47.992;10.158;2023-02-15T04:26:46;20.80;32.00
7234;DHT22;3658;47.992;10.158;2023-02-15T04:29:14;20.80;32.00
7234;DHT22;3658;47.992;10.158;2023-02-15T04:31:41;20.80;32.00
7234;DHT22;3658;47.992;10.158;2023-02-15T04:34:09;20.80;32.10
7234;DHT22;3658;47.992;10.158;2023-02-15T04:36:40;20.80;32.00
7234;DHT22;3658;47.992;10.158;2023-02-15T04:39:08;20.80;32.00
7234;DHT22;3658;47.992;10.158;2023-02-15T04:41:35;20.90;32.10
7234;DHT22;3658;47.992;10.158;2023-02-15T04:44:02;20.90;32.00
7234;DHT22;3658;47.992;10.158;2023-02-15T04:46:29;20.90;32.00
7234;DHT22;3658;47.992;10.158;2023-02-15T04:48:56;20.90;32.00
7234;DHT22;3658;47.992;10.158;2023-02-15T04:51:24;20.90;32.00
7234;DHT22;3658;47.992;10.158;2023-02-15T04:53:52;20.90;32.00
7234;DHT22;3658;47.992;10.158;2023-02-15T04:56:20;20.90;32.10
7234;DHT22;3658;47.992;10.158;2023-02-15T04:58:47;20.90;32.00
7234;DHT22;3658;47.992;10.158;2023-02-15T05:01:15;20.90;32.00
7234;DHT22;3658;47.992;10.158;2023-02-15T05:03:42;20.90;31.90
7234;DHT22;3658;47.992;10.158;2023-02-15T05:06:08;20.90;32.00
7234;DHT22;3658;47.992;10.158;2023-02-15T05:08:35;20.90;32.00
7234;DHT22;3658;47.992;10.158;2023-02-15T05:11:04;20.90;32.00
7234;DHT22;3658;47.992;10.158;2023-02-15T05:13:31;20.90;32.00
7234;DHT22;3658;47.992;10.158;2023-02-15T05:15:58;20.90;31.90
7234;DHT22;3658;47.992;10.158;2023-02-15T05:18:25;20.90;31.90
7234;DHT22;3658;47.992;10.158;2023-02-15T05:20:52;20.90;31.90
7234;DHT22;3658;47.992;10.158;2023-02-15T05:23:19;20.90;32.00
7234;DHT22;3658;47.992;10.158;2023-02-15T05:25:49;20.90;32.00
7234;DHT22;3658;47.992;10.158;2023-02-15T05:28:37;20.90;32.00
7234;DHT22;3658;47.992;10.158;2023-02-15T05:31:07;20.90;32.00
7234;DHT22;3658;47.992;10.158;2023-02-15T05:33:34;20.90;32.00
7234;DHT22;3658;47.992;10.158;2023-02-15T05:36:03;20.90;31.90
7234;DHT22;3658;47.992;10.158;2023-02-15T05:38:31;20.90;31.90
7234;DHT22;3658;47.992;10.158;2023-02-15T05:40:58;20.90;31.90
7234;DHT22;3658;47.992;10.158;2023-02-15T05:43:25;20.90;31.90
7234;DHT22;3658;47.992;10.158;2023-02-15T05:45:55;20.90;31.90
7234;DHT22;3658;47.992;10.158;2023-02-15T05:48:23;20.90;32.30
7234;DHT22;3658;47.992;10.158;2023-02-15T05:50:57;20.90;31.90
7234;DHT22;3658;47.992;10.158;2023-02-15T05:53:25;20.90;31.90
7234;DHT22;3658;47.992;10.158;2023-02-15T05:55:52;20.90;31.90
7234;DHT22;3658;47.992;10.158;2023-02-15T05:58:19;20.90;31.90
7234;DHT22;3658;47.992;10.158;2023-02-15T06:00:46;20.80;31.90
7234;DHT22;3658;47.992;10.158;2023-02-15T06:03:14;20.90;31.90
7234;DHT22;3658;47.992;10.158;2023-02-15T06:05:42;20.90;31.90
7234;DHT22;3658;47.992;10.158;2023-02-15T06:08:09;20.90;31.90
7234;DHT22;3658;47.992;10.158;2023-02-15T06:10:36;20.90;31.90
7234;DHT22;3658;47.992;10.158;2023-02-15T06:13:03;20.90;31.90
7234;DHT22;3658;47.992;10.158;2023-02-15T06:15:30;20.90;31.80
7234;DHT22;3658;47.992;10.158;2023-02-15T06:17:57;20.90;31.80
7234;DHT22;3658;47.992;10.158;2023-02-15T06:20:25;20.90;31.90
7234;DHT22;3658;47.992;10.158;2023-02-15T06:22:52;20.90;31.80
7234;DHT22;3658;47.992;10.158;2023-02-15T06:25:19;20.90;31.80
7234;DHT22;3658;47.992;10.158;2023-02-15T06:27:46;20.90;31.90
7234;DHT22;3658;47.992;10.158;2023-02-15T06:30:15;20.90;31.80
7234;DHT22;3658;47.992;10.158;2023-02-15T06:32:42;20.90;31.80
7234;DHT22;3658;47.992;10.158;2023-02-15T06:35:09;20.90;31.80
7234;DHT22;3658;47.992;10.158;2023-02-15T06:37:37;20.90;31.80
7234;DHT22;3658;47.992;10.158;2023-02-15T06:40:06;20.90;31.80
7234;DHT22;3658;47.992;10.158;2023-02-15T06:42:34;20.90;31.80
7234;DHT22;3658;47.992;10.158;2023-02-15T06:45:01;20.90;31.80
7234;DHT22;3658;47.992;10.158;2023-02-15T06:47:28;20.90;31.80
7234;DHT22;3658;47.992;10.158;2023-02-15T06:49:55;20.90;31.80
7234;DHT22;3658;47.992;10.158;2023-02-15T06:52:23;20.90;31.80
7234;DHT22;3658;47.992;10.158;2023-02-15T06:54:52;20.90;31.80
7234;DHT22;3658;47.992;10.158;2023-02-15T06:57:18;20.90;31.80
7234;DHT22;3658;47.992;10.158;2023-02-15T06:59:45;20.90;31.80
7234;DHT22;3658;47.992;10.158;2023-02-15T07:02:12;20.90;31.80
7234;DHT22;3658;47.992;10.158;2023-02-15T07:04:39;20.90;31.80
7234;DHT22;3658;47.992;10.158;2023-02-15T07:07:08;20.90;31.80
7234;DHT22;3658;47.992;10.158;2023-02-15T07:09:36;20.80;31.90
7234;DHT22;3658;47.992;10.158;2023-02-15T07:12:04;20.80;32.00
7234;DHT22;3658;47.992;10.158;2023-02-15T07:14:49;20.70;32.30
7234;DHT22;3658;47.992;10.158;2023-02-15T07:17:16;20.70;32.50
7234;DHT22;3658;47.992;10.158;2023-02-15T07:19:43;20.60;32.60
7234;DHT22;3658;47.992;10.158;2023-02-15T07:22:10;20.60;32.70
7234;DHT22;3658;47.992;10.158;2023-02-15T07:24:37;20.60;32.70
7234;DHT22;3658;47.992;10.158;2023-02-15T07:27:06;20.50;32.60
7234;DHT22;3658;47.992;10.158;2023-02-15T07:29:33;20.50;32.60
7234;DHT22;3658;47.992;10.158;2023-02-15T07:32:00;20.50;32.60
7234;DHT22;3658;47.992;10.158;2023-02-15T07:34:27;20.50;32.90
7234;DHT22;3658;47.992;10.158;2023-02-15T07:36:54;20.50;33.10
7234;DHT22;3658;47.992;10.158;2023-02-15T07:39:21;20.50;33.00
7234;DHT22;3658;47.992;10.158;2023-02-15T07:41:48;20.40;33.00
7234;DHT22;3658;47.992;10.158;2023-02-15T07:44:17;20.40;33.10
7234;DHT22;3658;47.992;10.158;2023-02-15T07:46:43;20.40;33.30
7234;DHT22;3658;47.992;10.158;2023-02-15T07:49:10;20.40;33.60
7234;DHT22;3658;47.992;10.158;2023-02-15T07:51:37;20.40;33.30
7234;DHT22;3658;47.992;10.158;2023-02-15T07:54:06;20.40;33.50
7234;DHT22;3658;47.992;10.158;2023-02-15T07:56:33;20.40;33.40
7234;DHT22;3658;47.992;10.158;2023-02-15T07:59:00;20.40;33.40
7234;DHT22;3658;47.992;10.158;2023-02-15T08:01:32;20.50;33.50
7234;DHT22;3658;47.992;10.158;2023-02-15T08:03:59;20.50;33.50
7234;DHT22;3658;47.992;10.158;2023-02-15T08:06:28;20.50;33.50
7234;DHT22;3658;47.992;10.158;2023-02-15T08:08:55;20.50;33.60
7234;DHT22;3658;47.992;10.158;2023-02-15T08:11:23;20.50;33.50
7234;DHT22;3658;47.992;10.158;2023-02-15T08:13:59;20.50;33.60
7234;DHT22;3658;47.992;10.158;2023-02-15T08:16:33;20.50;33.30
7234;DHT22;3658;47.992;10.158;2023-02-15T08:19:02;20.50;33.30
7234;DHT22;3658;47.992;10.158;2023-02-15T08:21:30;20.50;33.30
7234;DHT22;3658;47.992;10.158;2023-02-15T08:23:58;20.50;33.20
7234;DHT22;3658;47.992;10.158;2023-02-15T08:26:26;20.50;33.20
7234;DHT22;3658;47.992;10.158;2023-02-15T08:28:54;20.50;33.30
7234;DHT22;3658;47.992;10.158;2023-02-15T08:31:22;20.50;33.20
7234;DHT22;3658;47.992;10.158;2023-02-15T08:33:53;20.50;33.20
7234;DHT22;3658;47.992;10.158;2023-02-15T08:36:21;20.40;33.10
7234;DHT22;3658;47.992;10.158;2023-02-15T08:38:49;20.50;33.30
7234;DHT22;3658;47.992;10.158;2023-02-15T08:41:17;20.50;33.30
7234;DHT22;3658;47.992;10.158;2023-02-15T08:43:47;20.50;33.40
7234;DHT22;3658;47.992;10.158;2023-02-15T08:46:15;20.50;33.40
7234;DHT22;3658;47.992;10.158;2023-02-15T08:48:43;20.50;33.30
7234;DHT22;3658;47.992;10.158;2023-02-15T08:51:12;20.50;33.30
7234;DHT22;3658;47.992;10.158;2023-02-15T08:53:41;20.40;33.20
7234;DHT22;3658;47.992;10.158;2023-02-15T08:56:08;20.40;33.20
7234;DHT22;3658;47.992;10.158;2023-02-15T08:58:36;20.40;33.20
7234;DHT22;3658;47.992;10.158;2023-02-15T09:01:09;20.40;33.20
7234;DHT22;3658;47.992;10.158;2023-02-15T09:03:37;20.40;33.30
7234;DHT22;3658;47.992;10.158;2023-02-15T09:06:05;20.40;33.30
7234;DHT22;3658;47.992;10.158;2023-02-15T09:08:34;20.40;33.30
7234;DHT22;3658;47.992;10.158;2023-02-15T09:11:08;20.50;33.40
7234;DHT22;3658;47.992;10.158;2023-02-15T09:13:36;20.40;33.30
7234;DHT22;3658;47.992;10.158;2023-02-15T09:16:05;20.40;33.40
7234;DHT22;3658;47.992;10.158;2023-02-15T09:18:34;20.50;33.60
7234;DHT22;3658;47.992;10.158;2023-02-15T09:21:07;20.40;33.60
7234;DHT22;3658;47.992;10.158;2023-02-15T09:23:36;20.40;33.60
7234;DHT22;3658;47.992;10.158;2023-02-15T09:26:05;20.40;33.50
7234;DHT22;3658;47.992;10.158;2023-02-15T09:28:34;20.40;33.40
7234;DHT22;3658;47.992;10.158;2023-02-15T09:31:09;20.40;33.40
7234;DHT22;3658;47.992;10.158;2023-02-15T09:33:37;20.40;33.40
7234;DHT22;3658;47.992;10.158;2023-02-15T09:36:05;20.40;33.40
7234;DHT22;3658;47.992;10.158;2023-02-15T09:38:33;20.50;33.50
7234;DHT22;3658;47.992;10.158;2023-02-15T09:41:20;20.40;33.40
7234;DHT22;3658;47.992;10.158;2023-02-15T09:43:55;20.50;33.40
7234;DHT22;3658;47.992;10.158;2023-02-15T09:46:40;20.40;33.40
7234;DHT22;3658;47.992;10.158;2023-02-15T09:49:16;20.40;33.30
7234;DHT22;3658;47.992;10.158;2023-02-15T09:54:52;20.40;33.40
7234;DHT22;3658;47.992;10.158;2023-02-15T09:57:33;20.40;33.50
7234;DHT22;3658;47.992;10.158;2023-02-15T10:00:13;20.40;33.40
7234;DHT22;3658;47.992;10.158;2023-02-15T10:03:13;20.40;33.30
7234;DHT22;3658;47.992;10.158;2023-02-15T10:05:52;20.40;33.40
7234;DHT22;3658;47.992;10.158;2023-02-15T10:08:39;20.40;33.50
7234;DHT22;3658;47.992;10.158;2023-02-15T10:11:13;20.40;33.40
7234;DHT22;3658;47.992;10.158;2023-02-15T10:14:13;20.40;33.40
7234;DHT22;3658;47.992;10.158;2023-02-15T10:16:53;20.40;33.30
7234;DHT22;3658;47.992;10.158;2023-02-15T10:19:29;20.40;33.10
7234;DHT22;3658;47.992;10.158;2023-02-15T10:22:04;20.20;32.40
7234;DHT22;3658;47.992;10.158;2023-02-15T10:24:43;20.10;30.90
7234;DHT22;3658;47.992;10.158;2023-02-15T10:27:18;20.00;29.80
7234;DHT22;3658;47.992;10.158;2023-02-15T10:29:52;20.20;30.10
7234;DHT22;3658;47.992;10.158;2023-02-15T10:32:23;20.50;30.70
7234;DHT22;3658;47.992;10.158;2023-02-15T10:34:54;20.60;31.00
7234;DHT22;3658;47.992;10.158;2023-02-15T10:37:44;20.70;31.20
7234;DHT22;3658;47.992;10.158;2023-02-15T10:40:19;20.80;31.40
7234;DHT22;3658;47.992;10.158;2023-02-15T10:42:59;20.90;31.60
7234;DHT22;3658;47.992;10.158;2023-02-15T10:45:39;20.90;31.80
7234;DHT22;3658;47.992;10.158;2023-02-15T10:51:38;21.00;32.40
7234;DHT22;3658;47.992;10.158;2023-02-15T10:54:15;21.10;32.50
7234;DHT22;3658;47.992;10.158;2023-02-15T10:56:52;21.10;32.80
7234;DHT22;3658;47.992;10.158;2023-02-15T10:59:42;21.10;32.80
7234;DHT22;3658;47.992;10.158;2023-02-15T11:02:20;21.20;32.90
7234;DHT22;3658;47.992;10.158;2023-02-15T11:04:55;21.10;33.10
7234;DHT22;3658;47.992;10.158;2023-02-15T11:07:28;21.20;33.10
7234;DHT22;3658;47.992;10.158;2023-02-15T11:10:01;21.20;33.20
7234;DHT22;3658;47.992;10.158;2023-02-15T11:12:32;21.10;32.80
7234;DHT22;3658;47.992;10.158;2023-02-15T11:15:02;20.90;32.60
7234;DHT22;3658;47.992;10.158;2023-02-15T11:17:36;20.80;33.00
7234;DHT22;3658;47.992;10.158;2023-02-15T11:20:15;20.80;33.10
7234;DHT22;3658;47.992;10.158;2023-02-15T11:22:47;20.80;33.20
7234;DHT22;3658;47.992;10.158;2023-02-15T11:25:20;20.80;33.40
7234;DHT22;3658;47.992;10.158;2023-02-15T11:27:49;20.80;33.40
7234;DHT22;3658;47.992;10.158;2023-02-15T11:30:21;20.80;33.70
7234;DHT22;3658;47.992;10.158;2023-02-15T11:32:51;20.70;33.80
7234;DHT22;3658;47.992;10.158;2023-02-15T11:35:24;20.80;33.80
7234;DHT22;3658;47.992;10.158;2023-02-15T11:37:59;20.70;33.80
7234;DHT22;3658;47.992;10.158;2023-02-15T11:40:30;20.70;33.80
7234;DHT22;3658;47.992;10.158;2023-02-15T11:43:01;20.70;33.80
7234;DHT22;3658;47.992;10.158;2023-02-15T11:45:32;20.70;33.80
7234;DHT22;3658;47.992;10.158;2023-02-15T11:48:02;20.70;33.80
7234;DHT22;3658;47.992;10.158;2023-02-15T11:50:35;20.70;33.70
7234;DHT22;3658;47.992;10.158;2023-02-15T11:53:05;20.70;33.70
7234;DHT22;3658;47.992;10.158;2023-02-15T11:55:34;20.80;33.80
7234;DHT22;3658;47.992;10.158;2023-02-15T11:58:05;20.70;33.80
7234;DHT22;3658;47.992;10.158;2023-02-15T12:00:37;20.70;34.20
7234;DHT22;3658;47.992;10.158;2023-02-15T12:03:15;20.80;35.10
7234;DHT22;3658;47.992;10.158;2023-02-15T12:05:46;20.70;35.10
7234;DHT22;3658;47.992;10.158;2023-02-15T12:08:19;20.80;35.90
7234;DHT22;3658;47.992;10.158;2023-02-15T12:10:57;20.80;36.10
7234;DHT22;3658;47.992;10.158;2023-02-15T12:13:25;20.80;36.30
7234;DHT22;3658;47.992;10.158;2023-02-15T12:15:54;20.80;36.60
7234;DHT22;3658;47.992;10.158;2023-02-15T12:18:36;20.80;36.50
7234;DHT22;3658;47.992;10.158;2023-02-15T12:21:07;20.70;36.50
7234;DHT22;3658;47.992;10.158;2023-02-15T12:23:41;20.70;36.60
7234;DHT22;3658;47.992;10.158;2023-02-15T12:26:09;20.70;36.70
7234;DHT22;3658;47.992;10.158;2023-02-15T12:28:37;20.70;36.80
7234;DHT22;3658;47.992;10.158;2023-02-15T12:31:09;20.70;36.80
7234;DHT22;3658;47.992;10.158;2023-02-15T12:33:41;20.70;36.80
7234;DHT22;3658;47.992;10.158;2023-02-15T12:36:14;20.60;36.90
7234;DHT22;3658;47.992;10.158;2023-02-15T12:39:02;20.60;37.00
7234;DHT22;3658;47.992;10.158;2023-02-15T12:41:29;20.60;37.20
7234;DHT22;3658;47.992;10.158;2023-02-15T12:44:05;20.60;37.30
7234;DHT22;3658;47.992;10.158;2023-02-15T12:46:33;20.60;37.20
7234;DHT22;3658;47.992;10.158;2023-02-15T12:49:19;20.50;37.00
7234;DHT22;3658;47.992;10.158;2023-02-15T12:51:48;20.50;36.70
7234;DHT22;3658;47.992;10.158;2023-02-15T12:54:30;20.50;37.00
7234;DHT22;3658;47.992;10.158;2023-02-15T12:56:58;20.60;37.10
7234;DHT22;3658;47.992;10.158;2023-02-15T12:59:25;20.50;36.50
7234;DHT22;3658;47.992;10.158;2023-02-15T13:01:53;20.50;36.40
7234;DHT22;3658;47.992;10.158;2023-02-15T13:04:25;20.50;36.40
7234;DHT22;3658;47.992;10.158;2023-02-15T13:06:53;20.50;36.40
7234;DHT22;3658;47.992;10.158;2023-02-15T13:09:26;20.50;36.30
7234;DHT22;3658;47.992;10.158;2023-02-15T13:12:10;20.40;36.20
7234;DHT22;3658;47.992;10.158;2023-02-15T13:14:44;20.50;36.30
7234;DHT22;3658;47.992;10.158;2023-02-15T13:17:13;20.50;36.40
7234;DHT22;3658;47.992;10.158;2023-02-15T13:19:47;20.50;36.50
7234;DHT22;3658;47.992;10.158;2023-02-15T13:22:17;20.50;36.20
7234;DHT22;3658;47.992;10.158;2023-02-15T13:24:48;20.40;35.80
7234;DHT22;3658;47.992;10.158;2023-02-15T13:27:17;20.30;35.10
7234;DHT22;3658;47.992;10.158;2023-02-15T13:29:48;20.20;33.20
7234;DHT22;3658;47.992;10.158;2023-02-15T13:32:25;20.10;32.20
7234;DHT22;3658;47.992;10.158;2023-02-15T13:34:56;20.10;32.90
7234;DHT22;3658;47.992;10.158;2023-02-15T13:37:37;20.20;33.20
7234;DHT22;3658;47.992;10.158;2023-02-15T13:40:13;20.30;33.50
7234;DHT22;3658;47.992;10.158;2023-02-15T13:42:46;20.40;33.60
7234;DHT22;3658;47.992;10.158;2023-02-15T13:45:28;20.50;33.70
7234;DHT22;3658;47.992;10.158;2023-02-15T13:48:01;20.60;33.80
7234;DHT22;3658;47.992;10.158;2023-02-15T13:50:45;20.70;33.90
7234;DHT22;3658;47.992;10.158;2023-02-15T13:53:35;20.70;33.90
7234;DHT22;3658;47.992;10.158;2023-02-15T13:56:13;20.80;33.90
7234;DHT22;3658;47.992;10.158;2023-02-15T13:58:59;20.80;34.00
7234;DHT22;3658;47.992;10.158;2023-02-15T14:01:36;20.80;34.10
7234;DHT22;3658;47.992;10.158;2023-02-15T14:04:26;20.80;34.10
7234;DHT22;3658;47.992;10.158;2023-02-15T14:07:24;20.80;34.20
7234;DHT22;3658;47.992;10.158;2023-02-15T14:10:06;20.90;34.20
7234;DHT22;3658;47.992;10.158;2023-02-15T14:12:50;20.80;34.00
7234;DHT22;3658;47.992;10.158;2023-02-15T14:15:29;20.80;34.40
7234;DHT22;3658;47.992;10.158;2023-02-15T14:18:07;20.70;34.30
7234;DHT22;3658;47.992;10.158;2023-02-15T14:20:51;20.80;34.40
7234;DHT22;3658;47.992;10.158;2023-02-15T14:23:34;20.70;34.40
7234;DHT22;3658;47.992;10.158;2023-02-15T14:26:10;20.70;34.40
7234;DHT22;3658;47.992;10.158;2023-02-15T14:28:45;20.70;34.60
7234;DHT22;3658;47.992;10.158;2023-02-15T14:31:18;20.70;34.50
7234;DHT22;3658;47.992;10.158;2023-02-15T14:33:54;20.70;34.60
7234;DHT22;3658;47.992;10.158;2023-02-15T14:36:23;20.80;34.90
7234;DHT22;3658;47.992;10.158;2023-02-15T14:39:02;20.80;35.00
7234;DHT22;3658;47.992;10.158;2023-02-15T14:41:55;20.80;35.20
7234;DHT22;3658;47.992;10.158;2023-02-15T14:44:29;20.80;35.20
7234;DHT22;3658;47.992;10.158;2023-02-15T14:47:04;20.80;36.00
7234;DHT22;3658;47.992;10.158;2023-02-15T14:49:36;20.80;35.40
7234;DHT22;3658;47.992;10.158;2023-02-15T14:52:05;20.80;35.30
7234;DHT22;3658;47.992;10.158;2023-02-15T14:54:54;20.80;35.20
7234;DHT22;3658;47.992;10.158;2023-02-15T14:57:27;20.80;35.10
7234;DHT22;3658;47.992;10.158;2023-02-15T14:59:58;20.80;35.10
7234;DHT22;3658;47.992;10.158;2023-02-15T15:02:29;20.90;35.20
7234;DHT22;3658;47.992;10.158;2023-02-15T15:05:00;20.90;35.10
7234;DHT22;3658;47.992;10.158;2023-02-15T15:07:37;20.80;35.10
7234;DHT22;3658;47.992;10.158;2023-02-15T15:10:36;20.80;35.10
7234;DHT22;3658;47.992;10.158;2023-02-15T15:13:37;20.80;35.00
7234;DHT22;3658;47.992;10.158;2023-02-15T15:16:24;20.90;35.10
7234;DHT22;3658;47.992;10.158;2023-02-15T15:18:52;20.80;35.00
7234;DHT22;3658;47.992;10.158;2023-02-15T15:21:56;20.90;35.10
7234;DHT22;3658;47.992;10.158;2023-02-15T15:24:54;20.90;35.00
7234;DHT22;3658;47.992;10.158;2023-02-15T15:27:47;20.80;35.20
7234;DHT22;3658;47.992;10.158;2023-02-15T15:30:47;20.90;35.40
7234;DHT22;3658;47.992;10.158;2023-02-15T15:36:41;20.90;35.20
7234;DHT22;3658;47.992;10.158;2023-02-15T15:39:28;20.80;35.00
7234;DHT22;3658;47.992;10.158;2023-02-15T15:42:03;20.80;35.00
7234;DHT22;3658;47.992;10.158;2023-02-15T15:45:08;20.80;35.00
7234;DHT22;3658;47.992;10.158;2023-02-15T15:48:01;20.80;35.00
7234;DHT22;3658;47.992;10.158;2023-02-15T15:50:33;20.70;34.90
7234;DHT22;3658;47.992;10.158;2023-02-15T15:53:02;20.70;34.90
7234;DHT22;3658;47.992;10.158;2023-02-15T15:55:31;20.80;35.10
7234;DHT22;3658;47.992;10.158;2023-02-15T15:58:03;20.80;35.00
7234;DHT22;3658;47.992;10.158;2023-02-15T16:00:36;20.80;35.10
7234;DHT22;3658;47.992;10.158;2023-02-15T16:03:04;20.80;35.40
7234;DHT22;3658;47.992;10.158;2023-02-15T16:05:36;20.90;35.70
7234;DHT22;3658;47.992;10.158;2023-02-15T16:08:04;20.90;35.70
7234;DHT22;3658;47.992;10.158;2023-02-15T16:10:33;20.90;35.80
7234;DHT22;3658;47.992;10.158;2023-02-15T16:13:02;20.90;35.80
7234;DHT22;3658;47.992;10.158;2023-02-15T16:15:36;21.00;35.80
7234;DHT22;3658;47.992;10.158;2023-02-15T16:18:03;21.00;35.80
7234;DHT22;3658;47.992;10.158;2023-02-15T16:20:32;21.00;35.70
7234;DHT22;3658;47.992;10.158;2023-02-15T16:23:19;21.00;35.70
7234;DHT22;3658;47.992;10.158;2023-02-15T16:26:00;21.00;35.90
7234;DHT22;3658;47.992;10.158;2023-02-15T16:28:30;21.00;35.70
7234;DHT22;3658;47.992;10.158;2023-02-15T16:31:07;21.00;35.70